sensor_id;sensor_type;location;lat;lon;timestamp;P1;durP1;ratioP1;P2;durP2;ratioP2
6483;SDS011;3275;52.376;9.694;2024-01-11T09:09:44;18.60;;;9.27;;
6483;SDS011;3275;52.376;9.694;2024-01-11T09:12:11;17.33;;;8.88;;
6483;SDS011;3275;52.376;9.694;2024-01-11T09:14:38;23.33;;;10.77;;
6483;SDS011;3275;52.376;9.694;2024-01-11T09:17:05;21.13;;;10.60;;
6483;SDS011;3275;52.376;9.694;2024-01-11T09:19:33;20.98;;;11.20;;
6483;SDS011;3275;52.376;9.694;2024-01-11T09:22:00;23.83;;;11.05;;
6483;SDS011;3275;52.376;9.694;2024-01-11T09:24:27;29.45;;;10.48;;
6483;SDS011;3275;52.376;9.694;2024-01-11T09:26:55;27.75;;;12.70;;
6483;SDS011;3275;52.376;9.694;2024-01-11T09:29:22;22.95;;;11.05;;
6483;SDS011;3275;52.376;9.694;2024-01-11T09:31:48;23.98;;;10.02;;
6483;SDS011;3275;52.376;9.694;2024-01-11T09:34:15;20.48;;;10.85;;
6483;SDS011;3275;52.376;9.694;2024-01-11T09:36:43;25.77;;;9.77;;
6483;SDS011;3275;52.376;9.694;2024-01-11T09:39:10;25.40;;;9.77;;
6483;SDS011;3275;52.376;9.694;2024-01-11T09:41:38;29.35;;;11.68;;
6483;SDS011;3275;52.376;9.694;2024-01-11T09:44:12;25.33;;;11.35;;
6483;SDS011;3275;52.376;9.694;2024-01-11T09:46:39;22.58;;;9.38;;
6483;SDS011;3275;52.376;9.694;2024-01-11T09:49:05;24.98;;;9.82;;
6483;SDS011;3275;52.376;9.694;2024-01-11T09:51:34;22.52;;;11.50;;
6483;SDS011;3275;52.376;9.694;2024-01-11T09:54:04;23.08;;;10.00;;
6483;SDS011;3275;52.376;9.694;2024-01-11T09:56:32;22.48;;;10.05;;
6483;SDS011;3275;52.376;9.694;2024-01-11T09:59:00;29.40;;;12.75;;
6483;SDS011;3275;52.376;9.694;2024-01-11T10:01:29;23.08;;;10.00;;
6483;SDS011;3275;52.376;9.694;2024-01-11T10:03:55;32.30;;;12.00;;
6483;SDS011;3275;52.376;9.694;2024-01-11T10:06:22;30.17;;;11.90;;
6483;SDS011;3275;52.376;9.694;2024-01-11T10:08:51;27.52;;;12.25;;
6483;SDS011;3275;52.376;9.694;2024-01-11T10:11:18;27.65;;;12.30;;
6483;SDS011;3275;52.376;9.694;2024-01-11T10:13:44;27.17;;;10.38;;
6483;SDS011;3275;52.376;9.694;2024-01-11T10:16:12;31.40;;;9.60;;
6483;SDS011;3275;52.376;9.694;2024-01-11T10:18:41;31.60;;;12.25;;
6483;SDS011;3275;52.376;9.694;2024-01-11T10:21:09;23.05;;;10.38;;
6483;SDS011;3275;52.376;9.694;2024-01-11T10:23:36;26.77;;;10.02;;
6483;SDS011;3275;52.376;9.694;2024-01-11T10:26:03;27.42;;;9.60;;
6483;SDS011;3275;52.376;9.694;2024-01-11T10:28:32;25.48;;;10.60;;
6483;SDS011;3275;52.376;9.694;2024-01-11T10:31:02;29.73;;;11.65;;
6483;SDS011;3275;52.376;9.694;2024-01-11T10:33:29;21.90;;;10.00;;
6483;SDS011;3275;52.376;9.694;2024-01-11T10:35:57;18.67;;;10.13;;
6483;SDS011;3275;52.376;9.694;2024-01-11T10:38:24;28.35;;;9.88;;
6483;SDS011;3275;52.376;9.694;2024-01-11T10:40:52;24.58;;;9.77;;
6483;SDS011;3275;52.376;9.694;2024-01-11T10:43:21;26.85;;;12.45;;
6483;SDS011;3275;52.376;9.694;2024-01-11T10:45:48;22.63;;;10.25;;
6483;SDS011;3275;52.376;9.694;2024-01-11T10:48:18;20.15;;;8.82;;
6483;SDS011;3275;52.376;9.694;2024-01-11T10:50:49;25.85;;;10.13;;
6483;SDS011;3275;52.376;9.694;2024-01-11T10:53:24;23.77;;;10.00;;
6483;SDS011;3275;52.376;9.694;2024-01-11T10:55:54;32.38;;;12.45;;
6483;SDS011;3275;52.376;9.694;2024-01-11T10:58:22;23.52;;;10.75;;
6483;SDS011;3275;52.376;9.694;2024-01-11T11:00:51;24.25;;;10.60;;
6483;SDS011;3275;52.376;9.694;2024-01-11T11:03:20;21.10;;;10.38;;
6483;SDS011;3275;52.376;9.694;2024-01-11T11:05:49;26.90;;;11.27;;
6483;SDS011;3275;52.376;9.694;2024-01-11T11:08:18;24.20;;;9.88;;
6483;SDS011;3275;52.376;9.694;2024-01-11T11:10:47;24.90;;;11.75;;
6483;SDS011;3275;52.376;9.694;2024-01-11T11:13:14;24.13;;;10.75;;
6483;SDS011;3275;52.376;9.694;2024-01-11T11:15:41;21.48;;;9.25;;
6483;SDS011;3275;52.376;9.694;2024-01-11T11:18:11;25.10;;;10.18;;
6483;SDS011;3275;52.376;9.694;2024-01-11T11:20:38;22.45;;;9.32;;
6483;SDS011;3275;52.376;9.694;2024-01-11T11:23:07;18.20;;;8.32;;
6483;SDS011;3275;52.376;9.694;2024-01-11T11:25:35;21.10;;;8.40;;
6483;SDS011;3275;52.376;9.694;2024-01-11T11:28:04;21.65;;;9.98;;
6483;SDS011;3275;52.376;9.694;2024-01-11T11:30:31;20.88;;;8.25;;
6483;SDS011;3275;52.376;9.694;2024-01-11T11:33:07;22.00;;;9.40;;
6483;SDS011;3275;52.376;9.694;2024-01-11T11:35:34;16.17;;;8.13;;
6483;SDS011;3275;52.376;9.694;2024-01-11T11:38:01;21.67;;;8.45;;
6483;SDS011;3275;52.376;9.694;2024-01-11T11:40:36;17.73;;;7.07;;
6483;SDS011;3275;52.376;9.694;2024-01-11T11:43:06;15.15;;;7.15;;
6483;SDS011;3275;52.376;9.694;2024-01-11T11:45:32;21.13;;;7.68;;
6483;SDS011;3275;52.376;9.694;2024-01-11T11:47:59;21.70;;;8.18;;
6483;SDS011;3275;52.376;9.694;2024-01-11T11:50:26;23.23;;;8.60;;
6483;SDS011;3275;52.376;9.694;2024-01-11T11:52:56;15.68;;;6.90;;
6483;SDS011;3275;52.376;9.694;2024-01-11T11:55:23;19.50;;;6.72;;
6483;SDS011;3275;52.376;9.694;2024-01-11T11:57:51;17.45;;;7.13;;
6483;SDS011;3275;52.376;9.694;2024-01-11T12:00:19;13.52;;;6.95;;
6483;SDS011;3275;52.376;9.694;2024-01-11T12:02:46;13.15;;;6.80;;
6483;SDS011;3275;52.376;9.694;2024-01-11T12:05:13;16.25;;;6.70;;
6483;SDS011;3275;52.376;9.694;2024-01-11T12:07:39;13.98;;;6.50;;
6483;SDS011;3275;52.376;9.694;2024-01-11T12:10:06;19.75;;;8.40;;
6483;SDS011;3275;52.376;9.694;2024-01-11T12:12:33;10.40;;;5.97;;
6483;SDS011;3275;52.376;9.694;2024-01-11T12:15:02;18.98;;;8.15;;
6483;SDS011;3275;52.376;9.694;2024-01-11T12:17:30;21.38;;;7.50;;
6483;SDS011;3275;52.376;9.694;2024-01-11T12:19:57;18.95;;;8.38;;
6483;SDS011;3275;52.376;9.694;2024-01-11T12:22:23;16.58;;;7.97;;
6483;SDS011;3275;52.376;9.694;2024-01-11T12:24:50;17.10;;;7.78;;
6483;SDS011;3275;52.376;9.694;2024-01-11T12:27:17;29.13;;;8.20;;
6483;SDS011;3275;52.376;9.694;2024-01-11T12:29:45;18.45;;;8.75;;
6483;SDS011;3275;52.376;9.694;2024-01-11T12:32:12;24.08;;;9.05;;
6483;SDS011;3275;52.376;9.694;2024-01-11T12:34:42;18.63;;;8.50;;
6483;SDS011;3275;52.376;9.694;2024-01-11T12:37:10;17.95;;;8.38;;
6483;SDS011;3275;52.376;9.694;2024-01-11T12:39:37;21.80;;;7.55;;
6483;SDS011;3275;52.376;9.694;2024-01-11T12:42:04;19.20;;;8.32;;
6483;SDS011;3275;52.376;9.694;2024-01-11T12:44:32;28.23;;;8.80;;
6483;SDS011;3275;52.376;9.694;2024-01-11T12:47:00;20.17;;;8.95;;
6483;SDS011;3275;52.376;9.694;2024-01-11T12:49:27;22.63;;;8.67;;
6483;SDS011;3275;52.376;9.694;2024-01-11T12:51:55;21.30;;;8.90;;
6483;SDS011;3275;52.376;9.694;2024-01-11T12:54:22;28.85;;;9.27;;
6483;SDS011;3275;52.376;9.694;2024-01-11T12:56:48;22.95;;;8.75;;
6483;SDS011;3275;52.376;9.694;2024-01-11T12:59:15;27.95;;;8.98;;
6483;SDS011;3275;52.376;9.694;2024-01-11T13:01:42;32.77;;;10.77;;
6483;SDS011;3275;52.376;9.694;2024-01-11T13:04:09;19.07;;;9.13;;
6483;SDS011;3275;52.376;9.694;2024-01-11T13:06:36;23.77;;;10.15;;
6483;SDS011;3275;52.376;9.694;2024-01-11T13:09:04;22.23;;;9.00;;
6483;SDS011;3275;52.376;9.694;2024-01-11T13:11:33;16.23;;;8.83;;
6483;SDS011;3275;52.376;9.694;2024-01-11T13:13:59;26.20;;;8.70;;
6483;SDS011;3275;52.376;9.694;2024-01-11T13:16:31;25.13;;;10.27;;
6483;SDS011;3275;52.376;9.694;2024-01-11T13:18:58;24.60;;;9.77;;
6483;SDS011;3275;52.376;9.694;2024-01-11T13:21:24;30.02;;;9.38;;
6483;SDS011;3275;52.376;9.694;2024-01-11T13:23:51;38.20;;;10.83;;
6483;SDS011;3275;52.376;9.694;2024-01-11T13:26:20;43.33;;;11.77;;
6483;SDS011;3275;52.376;9.694;2024-01-11T13:28:46;27.63;;;9.50;;
6483;SDS011;3275;52.376;9.694;2024-01-11T13:31:13;23.95;;;9.73;;
6483;SDS011;3275;52.376;9.694;2024-01-11T13:33:40;29.37;;;10.30;;
6483;SDS011;3275;52.376;9.694;2024-01-11T13:36:06;21.53;;;9.03;;
6483;SDS011;3275;52.376;9.694;2024-01-11T13:38:33;30.27;;;13.50;;
6483;SDS011;3275;52.376;9.694;2024-01-11T13:41:00;32.47;;;11.63;;
6483;SDS011;3275;52.376;9.694;2024-01-11T13:43:28;27.70;;;11.87;;
6483;SDS011;3275;52.376;9.694;2024-01-11T13:45:55;19.73;;;10.03;;
6483;SDS011;3275;52.376;9.694;2024-01-11T13:48:21;25.37;;;10.03;;
6483;SDS011;3275;52.376;9.694;2024-01-11T13:50:50;21.73;;;9.83;;
6483;SDS011;3275;52.376;9.694;2024-01-11T13:53:17;23.53;;;10.27;;
6483;SDS011;3275;52.376;9.694;2024-01-11T13:55:43;22.90;;;9.40;;
6483;SDS011;3275;52.376;9.694;2024-01-11T13:58:10;21.60;;;10.83;;
6483;SDS011;3275;52.376;9.694;2024-01-11T14:00:40;26.77;;;10.50;;
6483;SDS011;3275;52.376;9.694;2024-01-11T14:03:06;22.20;;;10.43;;
6483;SDS011;3275;52.376;9.694;2024-01-11T14:05:33;27.20;;;9.90;;
6483;SDS011;3275;52.376;9.694;2024-01-11T14:08:00;23.00;;;9.87;;
6483;SDS011;3275;52.376;9.694;2024-01-11T14:10:30;24.10;;;10.07;;
6483;SDS011;3275;52.376;9.694;2024-01-11T14:12:57;26.38;;;10.60;;
6483;SDS011;3275;52.376;9.694;2024-01-11T14:15:24;21.37;;;10.33;;
6483;SDS011;3275;52.376;9.694;2024-01-11T14:17:52;19.25;;;9.13;;
6483;SDS011;3275;52.376;9.694;2024-01-11T14:20:18;22.50;;;9.10;;
6483;SDS011;3275;52.376;9.694;2024-01-11T14:22:46;34.43;;;11.87;;
6483;SDS011;3275;52.376;9.694;2024-01-11T14:25:14;17.03;;;8.13;;
6483;SDS011;3275;52.376;9.694;2024-01-11T14:27:44;25.07;;;10.73;;
6483;SDS011;3275;52.376;9.694;2024-01-11T14:30:11;30.83;;;11.00;;
6483;SDS011;3275;52.376;9.694;2024-01-11T14:32:38;20.43;;;10.27;;
6483;SDS011;3275;52.376;9.694;2024-01-11T14:35:07;20.80;;;8.95;;
6483;SDS011;3275;52.376;9.694;2024-01-11T14:37:35;20.77;;;9.30;;
6483;SDS011;3275;52.376;9.694;2024-01-11T14:40:03;24.20;;;8.77;;
6483;SDS011;3275;52.376;9.694;2024-01-11T14:42:31;20.13;;;8.20;;
6483;SDS011;3275;52.376;9.694;2024-01-11T14:44:58;20.30;;;8.77;;
6483;SDS011;3275;52.376;9.694;2024-01-11T14:47:25;31.27;;;10.77;;
6483;SDS011;3275;52.376;9.694;2024-01-11T14:49:51;21.30;;;9.50;;
6483;SDS011;3275;52.376;9.694;2024-01-11T14:52:19;24.27;;;10.87;;
6483;SDS011;3275;52.376;9.694;2024-01-11T14:54:46;27.87;;;11.40;;
6483;SDS011;3275;52.376;9.694;2024-01-11T14:57:13;29.90;;;9.43;;
6483;SDS011;3275;52.376;9.694;2024-01-11T14:59:40;23.20;;;10.20;;
6483;SDS011;3275;52.376;9.694;2024-01-11T15:02:06;31.77;;;9.75;;
6483;SDS011;3275;52.376;9.694;2024-01-11T15:04:34;23.90;;;9.13;;
6483;SDS011;3275;52.376;9.694;2024-01-11T15:07:00;70.50;;;29.03;;
6483;SDS011;3275;52.376;9.694;2024-01-11T15:09:28;36.97;;;15.10;;
6483;SDS011;3275;52.376;9.694;2024-01-11T15:11:55;32.30;;;13.30;;
6483;SDS011;3275;52.376;9.694;2024-01-11T15:14:22;29.50;;;9.20;;
6483;SDS011;3275;52.376;9.694;2024-01-11T15:16:48;24.07;;;9.60;;
6483;SDS011;3275;52.376;9.694;2024-01-11T15:19:15;28.93;;;12.23;;
6483;SDS011;3275;52.376;9.694;2024-01-11T15:21:42;26.90;;;10.43;;
6483;SDS011;3275;52.376;9.694;2024-01-11T15:24:08;29.90;;;11.43;;
6483;SDS011;3275;52.376;9.694;2024-01-11T15:26:36;29.47;;;12.37;;
6483;SDS011;3275;52.376;9.694;2024-01-11T15:29:03;29.10;;;11.70;;
6483;SDS011;3275;52.376;9.694;2024-01-11T15:31:30;30.37;;;11.17;;
6483;SDS011;3275;52.376;9.694;2024-01-11T15:33:57;34.53;;;11.10;;
6483;SDS011;3275;52.376;9.694;2024-01-11T15:36:24;30.83;;;12.70;;
6483;SDS011;3275;52.376;9.694;2024-01-11T15:38:52;29.50;;;11.57;;
6483;SDS011;3275;52.376;9.694;2024-01-11T15:41:19;27.97;;;10.50;;
6483;SDS011;3275;52.376;9.694;2024-01-11T15:43:47;28.07;;;11.40;;
6483;SDS011;3275;52.376;9.694;2024-01-11T15:46:15;25.83;;;10.53;;
6483;SDS011;3275;52.376;9.694;2024-01-11T15:48:42;28.30;;;11.20;;
6483;SDS011;3275;52.376;9.694;2024-01-11T15:51:09;26.20;;;10.77;;
6483;SDS011;3275;52.376;9.694;2024-01-11T15:53:35;38.97;;;12.23;;
6483;SDS011;3275;52.376;9.694;2024-01-11T15:56:02;27.60;;;11.10;;
6483;SDS011;3275;52.376;9.694;2024-01-11T15:58:29;22.10;;;10.77;;
6483;SDS011;3275;52.376;9.694;2024-01-11T16:00:57;22.80;;;11.50;;
6483;SDS011;3275;52.376;9.694;2024-01-11T16:03:23;34.90;;;12.37;;
6483;SDS011;3275;52.376;9.694;2024-01-11T16:05:50;32.50;;;11.73;;
6483;SDS011;3275;52.376;9.694;2024-01-11T16:08:17;29.60;;;12.40;;
6483;SDS011;3275;52.376;9.694;2024-01-11T16:10:43;33.63;;;12.90;;
6483;SDS011;3275;52.376;9.694;2024-01-11T16:13:10;35.23;;;12.10;;
6483;SDS011;3275;52.376;9.694;2024-01-11T16:15:37;33.37;;;12.60;;
6483;SDS011;3275;52.376;9.694;2024-01-11T16:18:05;27.63;;;12.23;;
6483;SDS011;3275;52.376;9.694;2024-01-11T16:20:31;31.00;;;12.70;;
6483;SDS011;3275;52.376;9.694;2024-01-11T16:22:58;27.77;;;11.30;;
6483;SDS011;3275;52.376;9.694;2024-01-11T16:25:25;31.10;;;12.40;;
6483;SDS011;3275;52.376;9.694;2024-01-11T16:27:51;29.87;;;12.40;;
6483;SDS011;3275;52.376;9.694;2024-01-11T16:30:18;36.83;;;14.33;;
6483;SDS011;3275;52.376;9.694;2024-01-11T16:32:45;38.20;;;13.63;;
6483;SDS011;3275;52.376;9.694;2024-01-11T16:35:13;31.83;;;12.70;;
6483;SDS011;3275;52.376;9.694;2024-01-11T16:37:39;26.03;;;13.20;;
6483;SDS011;3275;52.376;9.694;2024-01-11T16:40:06;33.60;;;13.80;;
6483;SDS011;3275;52.376;9.694;2024-01-11T16:42:36;28.27;;;13.83;;
6483;SDS011;3275;52.376;9.694;2024-01-11T16:45:03;33.10;;;13.77;;
6483;SDS011;3275;52.376;9.694;2024-01-11T16:47:30;37.57;;;12.43;;
6483;SDS011;3275;52.376;9.694;2024-01-11T16:50:01;31.57;;;12.57;;
6483;SDS011;3275;52.376;9.694;2024-01-11T16:52:30;29.60;;;13.00;;
6483;SDS011;3275;52.376;9.694;2024-01-11T16:54:57;31.13;;;14.57;;
6483;SDS011;3275;52.376;9.694;2024-01-11T16:57:24;44.43;;;13.00;;
6483;SDS011;3275;52.376;9.694;2024-01-11T16:59:50;34.03;;;11.87;;
6483;SDS011;3275;52.376;9.694;2024-01-11T17:02:19;36.37;;;13.77;;
6483;SDS011;3275;52.376;9.694;2024-01-11T17:04:47;35.80;;;14.30;;
6483;SDS011;3275;52.376;9.694;2024-01-11T17:07:13;45.23;;;14.40;;
6483;SDS011;3275;52.376;9.694;2024-01-11T17:09:41;37.30;;;13.63;;
6483;SDS011;3275;52.376;9.694;2024-01-11T17:12:08;44.27;;;15.70;;
6483;SDS011;3275;52.376;9.694;2024-01-11T17:14:35;41.07;;;14.97;;
6483;SDS011;3275;52.376;9.694;2024-01-11T17:17:01;37.90;;;15.20;;
6483;SDS011;3275;52.376;9.694;2024-01-11T17:19:30;40.93;;;15.70;;
6483;SDS011;3275;52.376;9.694;2024-01-11T17:21:57;26.70;;;12.57;;
6483;SDS011;3275;52.376;9.694;2024-01-11T17:24:24;38.27;;;14.47;;
6483;SDS011;3275;52.376;9.694;2024-01-11T17:26:52;43.23;;;15.63;;
6483;SDS011;3275;52.376;9.694;2024-01-11T17:29:19;33.30;;;12.60;;
6483;SDS011;3275;52.376;9.694;2024-01-11T17:31:45;47.43;;;14.20;;
6483;SDS011;3275;52.376;9.694;2024-01-11T17:34:12;42.67;;;16.57;;
6483;SDS011;3275;52.376;9.694;2024-01-11T17:36:39;35.10;;;15.17;;
6483;SDS011;3275;52.376;9.694;2024-01-11T17:39:05;35.53;;;14.60;;
6483;SDS011;3275;52.376;9.694;2024-01-11T17:41:32;36.07;;;15.17;;
6483;SDS011;3275;52.376;9.694;2024-01-11T17:44:02;39.30;;;15.03;;
6483;SDS011;3275;52.376;9.694;2024-01-11T17:46:29;42.03;;;15.63;;
6483;SDS011;3275;52.376;9.694;2024-01-11T17:48:56;34.63;;;15.20;;
6483;SDS011;3275;52.376;9.694;2024-01-11T17:51:23;32.20;;;15.03;;
6483;SDS011;3275;52.376;9.694;2024-01-11T17:53:50;40.70;;;15.97;;
6483;SDS011;3275;52.376;9.694;2024-01-11T17:56:17;31.33;;;14.60;;
6483;SDS011;3275;52.376;9.694;2024-01-11T17:58:46;48.40;;;19.00;;
6483;SDS011;3275;52.376;9.694;2024-01-11T18:01:20;40.17;;;18.00;;
6483;SDS011;3275;52.376;9.694;2024-01-11T18:03:47;52.30;;;19.33;;
6483;SDS011;3275;52.376;9.694;2024-01-11T18:06:14;38.87;;;17.93;;
6483;SDS011;3275;52.376;9.694;2024-01-11T18:08:41;64.37;;;23.63;;
6483;SDS011;3275;52.376;9.694;2024-01-11T18:11:09;47.00;;;18.50;;
6483;SDS011;3275;52.376;9.694;2024-01-11T18:13:37;43.13;;;17.47;;
6483;SDS011;3275;52.376;9.694;2024-01-11T18:16:07;43.80;;;18.70;;
6483;SDS011;3275;52.376;9.694;2024-01-11T18:18:35;40.83;;;15.43;;
6483;SDS011;3275;52.376;9.694;2024-01-11T18:21:02;35.63;;;15.03;;
6483;SDS011;3275;52.376;9.694;2024-01-11T18:23:29;48.90;;;19.10;;
6483;SDS011;3275;52.376;9.694;2024-01-11T18:25:55;41.50;;;18.57;;
6483;SDS011;3275;52.376;9.694;2024-01-11T18:28:22;41.43;;;16.87;;
6483;SDS011;3275;52.376;9.694;2024-01-11T18:30:49;34.00;;;16.50;;
6483;SDS011;3275;52.376;9.694;2024-01-11T18:33:15;48.70;;;17.60;;
6483;SDS011;3275;52.376;9.694;2024-01-11T18:35:44;40.57;;;15.83;;
6483;SDS011;3275;52.376;9.694;2024-01-11T18:38:11;57.00;;;20.57;;
6483;SDS011;3275;52.376;9.694;2024-01-11T18:40:38;58.23;;;18.10;;
6483;SDS011;3275;52.376;9.694;2024-01-11T18:43:04;34.83;;;16.87;;
6483;SDS011;3275;52.376;9.694;2024-01-11T18:45:32;37.20;;;17.23;;
6483;SDS011;3275;52.376;9.694;2024-01-11T18:47:58;49.63;;;19.10;;
6483;SDS011;3275;52.376;9.694;2024-01-11T18:50:25;50.83;;;19.23;;
6483;SDS011;3275;52.376;9.694;2024-01-11T18:52:54;46.37;;;17.50;;
6483;SDS011;3275;52.376;9.694;2024-01-11T18:55:21;40.00;;;17.40;;
6483;SDS011;3275;52.376;9.694;2024-01-11T18:57:48;54.07;;;18.43;;
6483;SDS011;3275;52.376;9.694;2024-01-11T19:00:15;65.75;;;22.52;;
6483;SDS011;3275;52.376;9.694;2024-01-11T19:02:42;60.90;;;19.03;;
6483;SDS011;3275;52.376;9.694;2024-01-11T19:05:11;39.93;;;16.07;;
6483;SDS011;3275;52.376;9.694;2024-01-11T19:07:39;61.23;;;20.00;;
6483;SDS011;3275;52.376;9.694;2024-01-11T19:10:08;77.43;;;26.00;;
6483;SDS011;3275;52.376;9.694;2024-01-11T19:12:35;59.00;;;19.17;;
6483;SDS011;3275;52.376;9.694;2024-01-11T19:15:02;53.00;;;22.10;;
6483;SDS011;3275;52.376;9.694;2024-01-11T19:17:30;65.90;;;21.30;;
6483;SDS011;3275;52.376;9.694;2024-01-11T19:19:57;58.43;;;21.50;;
6483;SDS011;3275;52.376;9.694;2024-01-11T19:22:24;55.47;;;19.97;;
6483;SDS011;3275;52.376;9.694;2024-01-11T19:24:51;57.77;;;21.93;;
6483;SDS011;3275;52.376;9.694;2024-01-11T19:27:19;55.63;;;19.57;;
6483;SDS011;3275;52.376;9.694;2024-01-11T19:29:45;58.87;;;18.97;;
6483;SDS011;3275;52.376;9.694;2024-01-11T19:32:12;60.97;;;20.47;;
6483;SDS011;3275;52.376;9.694;2024-01-11T19:34:39;48.27;;;17.47;;
6483;SDS011;3275;52.376;9.694;2024-01-11T19:37:06;44.23;;;18.57;;
6483;SDS011;3275;52.376;9.694;2024-01-11T19:39:33;48.50;;;16.70;;
6483;SDS011;3275;52.376;9.694;2024-01-11T19:42:00;47.40;;;18.63;;
6483;SDS011;3275;52.376;9.694;2024-01-11T19:44:28;57.63;;;18.87;;
6483;SDS011;3275;52.376;9.694;2024-01-11T19:46:54;42.20;;;18.10;;
6483;SDS011;3275;52.376;9.694;2024-01-11T19:49:21;48.40;;;19.60;;
6483;SDS011;3275;52.376;9.694;2024-01-11T19:51:47;51.63;;;17.60;;
6483;SDS011;3275;52.376;9.694;2024-01-11T19:54:15;61.80;;;20.53;;
6483;SDS011;3275;52.376;9.694;2024-01-11T19:56:41;54.73;;;19.17;;
6483;SDS011;3275;52.376;9.694;2024-01-11T19:59:08;54.40;;;18.87;;
6483;SDS011;3275;52.376;9.694;2024-01-11T20:01:36;57.13;;;21.17;;
6483;SDS011;3275;52.376;9.694;2024-01-11T20:04:02;51.57;;;18.93;;
6483;SDS011;3275;52.376;9.694;2024-01-11T20:06:29;64.57;;;19.47;;
6483;SDS011;3275;52.376;9.694;2024-01-11T20:08:56;79.50;;;24.40;;
6483;SDS011;3275;52.376;9.694;2024-01-11T20:11:22;61.77;;;18.70;;
6483;SDS011;3275;52.376;9.694;2024-01-11T20:13:49;62.47;;;21.37;;
6483;SDS011;3275;52.376;9.694;2024-01-11T20:16:16;50.10;;;19.33;;
6483;SDS011;3275;52.376;9.694;2024-01-11T20:18:44;51.17;;;18.97;;
6483;SDS011;3275;52.376;9.694;2024-01-11T20:21:11;71.03;;;21.40;;
6483;SDS011;3275;52.376;9.694;2024-01-11T20:23:38;57.63;;;19.53;;
6483;SDS011;3275;52.376;9.694;2024-01-11T20:26:08;53.33;;;21.00;;
6483;SDS011;3275;52.376;9.694;2024-01-11T20:28:35;59.37;;;20.60;;
6483;SDS011;3275;52.376;9.694;2024-01-11T20:31:02;53.83;;;18.77;;
6483;SDS011;3275;52.376;9.694;2024-01-11T20:33:28;71.10;;;22.73;;
6483;SDS011;3275;52.376;9.694;2024-01-11T20:35:56;58.30;;;20.17;;
6483;SDS011;3275;52.376;9.694;2024-01-11T20:38:23;58.43;;;22.73;;
6483;SDS011;3275;52.376;9.694;2024-01-11T20:40:51;66.63;;;21.70;;
6483;SDS011;3275;52.376;9.694;2024-01-11T20:43:17;58.23;;;18.87;;
6483;SDS011;3275;52.376;9.694;2024-01-11T20:45:44;46.83;;;17.60;;
6483;SDS011;3275;52.376;9.694;2024-01-11T20:48:11;49.57;;;18.40;;
6483;SDS011;3275;52.376;9.694;2024-01-11T20:50:37;54.80;;;19.70;;
6483;SDS011;3275;52.376;9.694;2024-01-11T20:53:05;66.67;;;21.00;;
6483;SDS011;3275;52.376;9.694;2024-01-11T20:55:32;59.93;;;19.40;;
6483;SDS011;3275;52.376;9.694;2024-01-11T20:57:59;64.47;;;20.90;;
6483;SDS011;3275;52.376;9.694;2024-01-11T21:00:25;64.67;;;22.77;;
6483;SDS011;3275;52.376;9.694;2024-01-11T21:02:52;59.37;;;20.17;;
6483;SDS011;3275;52.376;9.694;2024-01-11T21:05:20;54.70;;;21.13;;
6483;SDS011;3275;52.376;9.694;2024-01-11T21:07:48;76.50;;;21.77;;
6483;SDS011;3275;52.376;9.694;2024-01-11T21:10:16;60.10;;;19.13;;
6483;SDS011;3275;52.376;9.694;2024-01-11T21:12:43;58.87;;;19.13;;
6483;SDS011;3275;52.376;9.694;2024-01-11T21:15:10;55.57;;;19.03;;
6483;SDS011;3275;52.376;9.694;2024-01-11T21:17:36;62.33;;;21.07;;
6483;SDS011;3275;52.376;9.694;2024-01-11T21:20:05;68.57;;;23.57;;
6483;SDS011;3275;52.376;9.694;2024-01-11T21:22:32;62.17;;;18.93;;
6483;SDS011;3275;52.376;9.694;2024-01-11T21:24:58;47.50;;;18.27;;
6483;SDS011;3275;52.376;9.694;2024-01-11T21:27:26;49.33;;;18.73;;
6483;SDS011;3275;52.376;9.694;2024-01-11T21:29:53;52.47;;;21.43;;
6483;SDS011;3275;52.376;9.694;2024-01-11T21:32:19;54.37;;;23.30;;
6483;SDS011;3275;52.376;9.694;2024-01-11T21:34:46;51.30;;;19.97;;
6483;SDS011;3275;52.376;9.694;2024-01-11T21:37:13;60.70;;;22.10;;
6483;SDS011;3275;52.376;9.694;2024-01-11T21:39:39;62.53;;;20.03;;
6483;SDS011;3275;52.376;9.694;2024-01-11T21:42:06;65.93;;;21.27;;
6483;SDS011;3275;52.376;9.694;2024-01-11T21:44:34;84.60;;;23.43;;
6483;SDS011;3275;52.376;9.694;2024-01-11T21:47:01;60.93;;;19.77;;
6483;SDS011;3275;52.376;9.694;2024-01-11T21:49:27;53.13;;;20.30;;
6483;SDS011;3275;52.376;9.694;2024-01-11T21:51:54;62.13;;;19.90;;
6483;SDS011;3275;52.376;9.694;2024-01-11T21:54:21;55.07;;;23.20;;
6483;SDS011;3275;52.376;9.694;2024-01-11T21:56:48;52.97;;;19.40;;
6483;SDS011;3275;52.376;9.694;2024-01-11T21:59:14;54.57;;;20.97;;
6483;SDS011;3275;52.376;9.694;2024-01-11T22:01:42;50.30;;;16.80;;
6483;SDS011;3275;52.376;9.694;2024-01-11T22:04:09;45.50;;;17.43;;
6483;SDS011;3275;52.376;9.694;2024-01-11T22:06:36;73.53;;;19.77;;
6483;SDS011;3275;52.376;9.694;2024-01-11T22:09:03;59.20;;;16.80;;
6483;SDS011;3275;52.376;9.694;2024-01-11T22:11:30;52.57;;;18.93;;
6483;SDS011;3275;52.376;9.694;2024-01-11T22:13:58;47.87;;;17.63;;
6483;SDS011;3275;52.376;9.694;2024-01-11T22:16:24;50.13;;;17.97;;
6483;SDS011;3275;52.376;9.694;2024-01-11T22:18:52;41.80;;;15.80;;
6483;SDS011;3275;52.376;9.694;2024-01-11T22:21:20;55.00;;;15.40;;
6483;SDS011;3275;52.376;9.694;2024-01-11T22:23:46;35.67;;;14.83;;
6483;SDS011;3275;52.376;9.694;2024-01-11T22:26:18;56.63;;;18.50;;
6483;SDS011;3275;52.376;9.694;2024-01-11T22:28:45;49.47;;;18.03;;
6483;SDS011;3275;52.376;9.694;2024-01-11T22:31:11;41.60;;;14.40;;
6483;SDS011;3275;52.376;9.694;2024-01-11T22:33:38;43.77;;;15.23;;
6483;SDS011;3275;52.376;9.694;2024-01-11T22:36:06;31.80;;;14.57;;
6483;SDS011;3275;52.376;9.694;2024-01-11T22:38:34;51.90;;;15.20;;
6483;SDS011;3275;52.376;9.694;2024-01-11T22:41:01;36.93;;;11.90;;
6483;SDS011;3275;52.376;9.694;2024-01-11T22:43:29;37.40;;;12.10;;
6483;SDS011;3275;52.376;9.694;2024-01-11T22:45:58;37.83;;;12.47;;
6483;SDS011;3275;52.376;9.694;2024-01-11T22:48:24;38.30;;;14.07;;
6483;SDS011;3275;52.376;9.694;2024-01-11T22:50:51;45.53;;;14.90;;
6483;SDS011;3275;52.376;9.694;2024-01-11T22:53:19;49.87;;;12.50;;
6483;SDS011;3275;52.376;9.694;2024-01-11T22:55:46;41.97;;;12.63;;
6483;SDS011;3275;52.376;9.694;2024-01-11T22:58:12;44.03;;;13.40;;
6483;SDS011;3275;52.376;9.694;2024-01-11T23:00:39;43.67;;;13.27;;
6483;SDS011;3275;52.376;9.694;2024-01-11T23:03:06;48.23;;;13.43;;
6483;SDS011;3275;52.376;9.694;2024-01-11T23:05:33;42.80;;;13.53;;
6483;SDS011;3275;52.376;9.694;2024-01-11T23:07:59;35.57;;;12.70;;
6483;SDS011;3275;52.376;9.694;2024-01-11T23:10:27;33.93;;;14.13;;
